Time;durP1;ratioP1;P1;durP2;ratioP2;P2;SDS_P1;SDS_P2;PMS_P1;PMS_P2;Temp;Humidity;BMP_temperature;BMP_pressure;BME280_temperature;BME280_humidity;BME280_pressure;Samples;Min_cycle;Max_cycle;Signal;HPM_P1;HPM_P2
2024/01/26 00:00:38;;;;;;;;;;;9.30;99.90;;;;;;4994985;28;19921;-87
2024/01/26 00:03:04;;;;;;;;;;;10.00;99.90;;;;;;4996029;28;19929;-86
2024/01/26 00:05:30;;;;;;;;;;;9.30;99.90;;;;;;4997164;28;19925;-86
2024/01/26 00:07:55;;;;;;;;;;;9.30;99.90;;;;;;4998691;28;19929;-87
2024/01/26 00:10:21;;;;;;;;;;;9.30;99.90;;;;;;4996995;28;20409;-87
2024/01/26 00:12:46;;;;;;;;;;;9.30;99.90;;;;;;5008752;28;19928;-86
2024/01/26 00:15:13;;;;;;;;;;;9.40;99.90;;;;;;5027973;28;20017;-86
2024/01/26 00:17:38;;;;;;;;;;;9.40;99.90;;;;;;5014927;28;19922;-86
2024/01/26 00:20:05;;;;;;;;;;;9.40;99.90;;;;;;5014637;28;19974;-87
2024/01/26 00:22:31;;;;;;;;;;;9.40;99.90;;;;;;4998951;28;20254;-85
2024/01/26 00:24:56;;;;;;;;;;;9.40;99.90;;;;;;5010733;28;20012;-86
2024/01/26 00:27:22;;;;;;;;;;;9.40;99.90;;;;;;4994826;28;20333;-86
2024/01/26 00:29:47;;;;;;;;;;;9.40;99.90;;;;;;5010560;28;20008;-86
2024/01/26 00:32:13;;;;;;;;;;;9.40;99.90;;;;;;5013315;28;19921;-86
2024/01/26 00:34:39;;;;;;;;;;;9.90;99.90;;;;;;5014025;28;19925;-86
2024/01/26 00:37:04;;;;;;;;;;;9.40;99.90;;;;;;4997241;28;20285;-86
2024/01/26 00:39:30;;;;;;;;;;;9.40;99.90;;;;;;4989416;28;20247;-87
2024/01/26 00:41:56;;;;;;;;;;;9.50;99.90;;;;;;5013096;28;19912;-86
2024/01/26 00:44:22;;;;;;;;;;;9.50;99.90;;;;;;4997619;28;19925;-86
2024/01/26 00:46:47;;;;;;;;;;;9.50;99.90;;;;;;5009708;28;19925;-86
2024/01/26 00:49:13;;;;;;;;;;;9.50;99.90;;;;;;5011290;28;20374;-86
2024/01/26 00:51:38;;;;;;;;;;;9.50;99.90;;;;;;4995301;28;20020;-86
2024/01/26 00:54:04;;;;;;;;;;;9.50;99.90;;;;;;5014249;28;19925;-86
2024/01/26 00:56:30;;;;;;;;;;;9.50;99.90;;;;;;5014120;28;19975;-86
2024/01/26 00:58:56;;;;;;;;;;;9.70;99.90;;;;;;5013846;28;19921;-85
2024/01/26 01:01:23;;;;;;;;;;;9.50;99.90;;;;;;5004419;28;19964;-85
2024/01/26 01:03:49;;;;;;;;;;;9.50;99.90;;;;;;4991187;28;19965;-87
2024/01/26 01:06:14;;;;;;;;;;;9.50;99.90;;;;;;4994992;28;20258;-86
2024/01/26 01:08:40;;;;;;;;;;;9.50;99.90;;;;;;5013492;28;19928;-86
2024/01/26 01:11:06;;;;;;;;;;;9.50;99.90;;;;;;4989088;28;19961;-86
2024/01/26 01:13:31;;;;;;;;;;;9.50;99.90;;;;;;4996900;28;19929;-86
2024/01/26 01:15:57;;;;;;;;;;;9.60;99.90;;;;;;5013726;28;19922;-86
2024/01/26 01:18:22;;;;;;;;;;;9.60;99.90;;;;;;4997360;28;19975;-86
2024/01/26 01:20:48;;;;;;;;;;;9.60;99.90;;;;;;5021520;28;20293;-86
2024/01/26 01:23:15;;;;;;;;;;;9.60;99.90;;;;;;4977920;28;19929;-86
2024/01/26 01:25:41;;;;;;;;;;;9.60;99.90;;;;;;5005212;28;19921;-87
2024/01/26 01:28:06;;;;;;;;;;;9.60;99.90;;;;;;5010495;28;20378;-87
2024/01/26 01:30:32;;;;;;;;;;;9.50;99.90;;;;;;4991790;28;20012;-86
2024/01/26 01:32:58;;;;;;;;;;;9.50;99.90;;;;;;4996623;28;19921;-86
2024/01/26 01:35:23;;;;;;;;;;;9.50;99.90;;;;;;5019180;28;19925;-86
2024/01/26 01:37:49;;;;;;;;;;;9.50;99.90;;;;;;5000914;28;19922;-86
2024/01/26 01:40:14;;;;;;;;;;;9.60;99.90;;;;;;4999663;28;20377;-86
2024/01/26 01:42:41;;;;;;;;;;;9.60;99.90;;;;;;5014066;28;19921;-86
2024/01/26 01:45:12;;;;;;;;;;;9.50;99.90;;;;;;5001466;28;19953;-87
2024/01/26 01:47:37;;;;;;;;;;;9.50;99.90;;;;;;5033682;28;19921;-87
2024/01/26 01:50:03;;;;;;;;;;;9.60;99.90;;;;;;5012252;28;19987;-86
2024/01/26 01:52:29;;;;;;;;;;;9.60;99.90;;;;;;5010659;28;19928;-87
2024/01/26 01:54:56;;;;;;;;;;;9.50;99.90;;;;;;4984202;28;19933;-87
2024/01/26 01:57:23;;;;;;;;;;;9.60;99.90;;;;;;5016987;28;19928;-87
2024/01/26 01:59:48;;;;;;;;;;;9.60;99.90;;;;;;5033905;28;19921;-87
2024/01/26 02:02:14;;;;;;;;;;;9.60;99.90;;;;;;5000059;28;19932;-87
2024/01/26 02:04:40;;;;;;;;;;;9.60;99.90;;;;;;5015649;28;20366;-87
2024/01/26 02:07:05;;;;;;;;;;;9.60;99.90;;;;;;5002238;28;19933;-87
2024/01/26 02:09:31;;;;;;;;;;;9.60;99.90;;;;;;5011929;28;20384;-86
2024/01/26 02:11:57;;;;;;;;;;;9.60;99.90;;;;;;4984264;28;19922;-87
2024/01/26 02:14:23;;;;;;;;;;;9.60;99.90;;;;;;5017342;28;19952;-88
2024/01/26 02:17:06;;;;;;;;;;;9.60;99.90;;;;;;5013684;28;20373;-87
2024/01/26 02:19:32;;;;;;;;;;;9.60;99.90;;;;;;4997583;28;19933;-87
2024/01/26 02:21:58;;;;;;;;;;;9.60;99.90;;;;;;5009171;28;19922;-87
2024/01/26 02:24:23;;;;;;;;;;;9.70;99.90;;;;;;4996897;28;19956;-87
2024/01/26 02:26:49;;;;;;;;;;;9.70;99.90;;;;;;4997719;28;19952;-87
2024/01/26 02:29:15;;;;;;;;;;;9.70;99.90;;;;;;4984245;28;19921;-87
2024/01/26 02:31:40;;;;;;;;;;;9.80;99.90;;;;;;5031390;28;20393;-87
2024/01/26 02:34:12;;;;;;;;;;;9.70;99.90;;;;;;5012313;28;19925;-87
2024/01/26 02:36:38;;;;;;;;;;;9.70;99.90;;;;;;4990233;28;20040;-87
2024/01/26 02:39:05;;;;;;;;;;;9.70;99.90;;;;;;5000416;28;20379;-87
2024/01/26 02:41:32;;;;;;;;;;;9.70;99.90;;;;;;5007032;28;19984;-87
2024/01/26 02:43:57;;;;;;;;;;;9.70;99.90;;;;;;5011098;28;20020;-87
2024/01/26 02:46:23;;;;;;;;;;;9.60;99.90;;;;;;4988151;28;20020;-87
2024/01/26 02:48:49;;;;;;;;;;;9.80;99.90;;;;;;5010446;28;20016;-87
2024/01/26 02:51:14;;;;;;;;;;;9.70;99.90;;;;;;5019716;28;19921;-87
2024/01/26 02:53:40;;;;;;;;;;;9.70;99.90;;;;;;4999051;28;19969;-87
2024/01/26 02:56:06;;;;;;;;;;;10.00;99.90;;;;;;5000183;28;20059;-87
2024/01/26 02:58:32;;;;;;;;;;;9.70;99.90;;;;;;5013178;28;19980;-87
2024/01/26 03:00:58;;;;;;;;;;;9.70;99.90;;;;;;4985657;28;19934;-87
2024/01/26 03:03:23;;;;;;;;;;;9.80;99.90;;;;;;5000324;28;19960;-87
2024/01/26 03:05:49;;;;;;;;;;;9.80;99.90;;;;;;5001343;28;19926;-88
2024/01/26 03:08:15;;;;;;;;;;;9.80;99.90;;;;;;5000178;28;19921;-86
2024/01/26 03:10:40;;;;;;;;;;;9.80;99.90;;;;;;5004738;28;19964;-87
2024/01/26 03:13:06;;;;;;;;;;;9.80;99.90;;;;;;5002487;28;20333;-86
2024/01/26 03:15:32;;;;;;;;;;;9.90;99.90;;;;;;5001372;28;19929;-87
2024/01/26 03:17:57;;;;;;;;;;;9.90;99.90;;;;;;4987643;28;19977;-87
2024/01/26 03:20:23;;;;;;;;;;;9.80;99.90;;;;;;5008989;28;19926;-87
2024/01/26 03:22:48;;;;;;;;;;;9.80;99.90;;;;;;5002189;28;19929;-87
2024/01/26 03:25:14;;;;;;;;;;;9.80;99.90;;;;;;5001026;28;19922;-87
2024/01/26 03:27:39;;;;;;;;;;;9.90;99.90;;;;;;5013543;28;20004;-86
2024/01/26 03:30:05;;;;;;;;;;;9.90;99.90;;;;;;4986941;28;19933;-86
2024/01/26 03:32:31;;;;;;;;;;;9.90;99.90;;;;;;5000035;28;19926;-87
2024/01/26 03:34:56;;;;;;;;;;;9.90;99.90;;;;;;5014082;28;19933;-86
2024/01/26 03:37:22;;;;;;;;;;;9.90;99.90;;;;;;4999108;28;20393;-87
2024/01/26 03:39:48;;;;;;;;;;;9.90;99.90;;;;;;4999050;28;19928;-86
2024/01/26 03:42:13;;;;;;;;;;;10.00;99.90;;;;;;5031842;28;19975;-87
2024/01/26 03:44:40;;;;;;;;;;;10.00;99.90;;;;;;5014808;28;19947;-87
2024/01/26 03:47:06;;;;;;;;;;;10.00;99.90;;;;;;5027069;28;19930;-87
2024/01/26 03:49:31;;;;;;;;;;;10.00;99.90;;;;;;5014312;28;19922;-87
2024/01/26 03:51:57;;;;;;;;;;;10.00;99.90;;;;;;5015105;28;20309;-86
2024/01/26 03:54:22;;;;;;;;;;;10.10;99.90;;;;;;5008641;28;19933;-86
2024/01/26 03:56:48;;;;;;;;;;;10.10;99.90;;;;;;5032216;28;19922;-86
2024/01/26 03:59:13;;;;;;;;;;;10.20;99.90;;;;;;5014930;28;19922;-86
2024/01/26 04:01:39;;;;;;;;;;;10.20;99.90;;;;;;4997297;28;20400;-87
2024/01/26 04:04:05;;;;;;;;;;;10.20;99.90;;;;;;5015211;28;19987;-87
2024/01/26 04:06:30;;;;;;;;;;;10.20;99.90;;;;;;5013702;28;19969;-87
2024/01/26 04:08:58;;;;;;;;;;;10.20;99.90;;;;;;5006005;28;19921;-86
2024/01/26 04:11:24;;;;;;;;;;;10.30;99.90;;;;;;5000062;28;19921;-87
2024/01/26 04:13:49;;;;;;;;;;;10.30;99.90;;;;;;5031182;28;19922;-87
2024/01/26 04:16:15;;;;;;;;;;;10.40;99.90;;;;;;4996172;28;19929;-86
2024/01/26 04:18:41;;;;;;;;;;;10.30;99.90;;;;;;5030340;28;20273;-87
2024/01/26 04:21:07;;;;;;;;;;;10.30;99.90;;;;;;5014293;28;19921;-87
2024/01/26 04:23:32;;;;;;;;;;;10.30;99.90;;;;;;5014720;28;20366;-87
2024/01/26 04:25:58;;;;;;;;;;;10.30;99.90;;;;;;5020680;28;19921;-87
2024/01/26 04:28:23;;;;;;;;;;;10.30;99.90;;;;;;4981682;28;19921;-87
2024/01/26 04:30:49;;;;;;;;;;;10.30;99.90;;;;;;5012416;28;20289;-86
2024/01/26 04:33:15;;;;;;;;;;;10.30;99.90;;;;;;5014173;28;19965;-86
2024/01/26 04:35:40;;;;;;;;;;;10.30;99.90;;;;;;5031079;28;19909;-87
2024/01/26 04:38:07;;;;;;;;;;;10.40;99.90;;;;;;5030401;28;20259;-87
2024/01/26 04:40:33;;;;;;;;;;;10.40;99.90;;;;;;5030604;28;19925;-86
2024/01/26 04:42:59;;;;;;;;;;;10.40;99.90;;;;;;4996266;28;19922;-84
2024/01/26 04:45:24;;;;;;;;;;;10.40;99.90;;;;;;5012321;28;20011;-87
2024/01/26 04:47:50;;;;;;;;;;;10.50;99.90;;;;;;5001273;28;19925;-86
2024/01/26 04:50:16;;;;;;;;;;;10.50;99.90;;;;;;4980380;28;19922;-86
2024/01/26 04:52:41;;;;;;;;;;;10.50;99.90;;;;;;4997044;28;19922;-85
2024/01/26 04:55:08;;;;;;;;;;;10.50;99.90;;;;;;5014146;28;20329;-87
2024/01/26 04:57:35;;;;;;;;;;;10.60;99.90;;;;;;5029881;28;19922;-86
2024/01/26 05:00:00;;;;;;;;;;;10.60;99.90;;;;;;5030805;28;19928;-87
2024/01/26 05:02:26;;;;;;;;;;;10.60;99.90;;;;;;5014268;28;19921;-86
2024/01/26 05:04:52;;;;;;;;;;;10.70;99.90;;;;;;4989723;28;19932;-86
2024/01/26 05:07:17;;;;;;;;;;;10.70;99.90;;;;;;4994820;28;19980;-87
2024/01/26 05:09:43;;;;;;;;;;;10.70;99.90;;;;;;5014121;28;20011;-87
2024/01/26 05:12:08;;;;;;;;;;;10.70;99.90;;;;;;5013427;28;19922;-86
2024/01/26 05:14:37;;;;;;;;;;;10.70;99.90;;;;;;5013907;28;20000;-87
2024/01/26 05:17:03;;;;;;;;;;;10.70;99.90;;;;;;4998553;28;19944;-86
2024/01/26 05:19:29;;;;;;;;;;;10.70;99.90;;;;;;5013575;28;19925;-87
2024/01/26 05:21:54;;;;;;;;;;;10.70;99.90;;;;;;5014151;28;20486;-86
2024/01/26 05:24:20;;;;;;;;;;;10.70;99.90;;;;;;5013760;28;20173;-86
2024/01/26 05:26:46;;;;;;;;;;;10.70;99.90;;;;;;5015594;28;19929;-85
2024/01/26 05:29:11;;;;;;;;;;;10.70;99.90;;;;;;5024619;28;20011;-86
2024/01/26 05:31:41;;;;;;;;;;;10.60;99.90;;;;;;4986361;28;19921;-87
2024/01/26 05:34:06;;;;;;;;;;;10.60;99.90;;;;;;5021820;28;19933;-86
2024/01/26 05:36:32;;;;;;;;;;;10.60;99.90;;;;;;5038611;28;20016;-85
2024/01/26 05:38:58;;;;;;;;;;;10.60;99.90;;;;;;5006706;28;19929;-87
2024/01/26 05:41:23;;;;;;;;;;;10.60;99.90;;;;;;5013400;28;19921;-86
2024/01/26 05:43:49;;;;;;;;;;;10.60;99.90;;;;;;5013596;28;19922;-86
2024/01/26 05:46:15;;;;;;;;;;;10.60;99.90;;;;;;4998070;28;19921;-86
2024/01/26 05:48:44;;;;;;;;;;;10.60;99.90;;;;;;5017735;28;20370;-86
2024/01/26 05:51:11;;;;;;;;;;;10.60;99.90;;;;;;5002961;28;19921;-86
2024/01/26 05:53:37;;;;;;;;;;;10.60;99.90;;;;;;5023624;28;20000;-87
2024/01/26 05:56:02;;;;;;;;;;;10.60;99.90;;;;;;5009432;28;19934;-85
2024/01/26 05:58:28;;;;;;;;;;;10.60;99.90;;;;;;5009517;28;19975;-86
2024/01/26 06:00:54;;;;;;;;;;;10.60;99.90;;;;;;4985332;28;19937;-86
2024/01/26 06:03:19;;;;;;;;;;;10.60;99.90;;;;;;4998118;28;19932;-86
2024/01/26 06:05:45;;;;;;;;;;;10.70;99.90;;;;;;5009496;28;20405;-86
2024/01/26 06:08:11;;;;;;;;;;;10.70;99.90;;;;;;4983819;28;19953;-87
2024/01/26 06:10:37;;;;;;;;;;;10.70;99.90;;;;;;4992635;28;20390;-87
2024/01/26 06:13:03;;;;;;;;;;;10.70;99.90;;;;;;5012966;28;19934;-87
2024/01/26 06:15:29;;;;;;;;;;;10.70;99.90;;;;;;4996846;28;19925;-87
2024/01/26 06:17:54;;;;;;;;;;;10.60;99.90;;;;;;4988870;28;19932;-87
2024/01/26 06:20:20;;;;;;;;;;;10.70;99.90;;;;;;4997251;28;19933;-87
2024/01/26 06:22:45;;;;;;;;;;;10.70;99.90;;;;;;5012731;28;20392;-87
2024/01/26 06:25:11;;;;;;;;;;;10.70;99.90;;;;;;5012826;28;19959;-87
2024/01/26 06:27:37;;;;;;;;;;;10.70;99.90;;;;;;5016175;28;20409;-87
2024/01/26 06:30:03;;;;;;;;;;;10.80;99.90;;;;;;4996962;28;19932;-86
2024/01/26 06:32:29;;;;;;;;;;;10.70;99.90;;;;;;5014041;28;19922;-87
2024/01/26 06:34:55;;;;;;;;;;;11.60;99.90;;;;;;4991178;28;20015;-86
2024/01/26 06:37:21;;;;;;;;;;;10.70;99.90;;;;;;5016512;28;19922;-87
2024/01/26 06:39:46;;;;;;;;;;;10.70;99.90;;;;;;4994643;28;20358;-87
2024/01/26 06:42:12;;;;;;;;;;;10.70;99.90;;;;;;4984364;28;19925;-87
2024/01/26 06:44:38;;;;;;;;;;;10.70;99.90;;;;;;5012553;28;20302;-87
2024/01/26 06:47:03;;;;;;;;;;;10.80;99.90;;;;;;5000485;28;20298;-87
2024/01/26 06:49:29;;;;;;;;;;;10.80;99.90;;;;;;5016559;28;19921;-86
2024/01/26 06:51:55;;;;;;;;;;;10.80;99.90;;;;;;4998928;28;19925;-86
2024/01/26 06:54:20;;;;;;;;;;;10.80;99.90;;;;;;4999791;28;20299;-86
2024/01/26 06:56:46;;;;;;;;;;;10.80;99.90;;;;;;5015992;28;19921;-86
2024/01/26 06:59:12;;;;;;;;;;;10.80;99.90;;;;;;4999296;28;20431;-87
2024/01/26 07:01:37;;;;;;;;;;;10.70;99.90;;;;;;5015632;28;19921;-88
2024/01/26 07:04:03;;;;;;;;;;;10.70;99.90;;;;;;5016337;28;20000;-88
2024/01/26 07:06:28;;;;;;;;;;;10.70;99.90;;;;;;5032344;28;20297;-88
2024/01/26 07:08:54;;;;;;;;;;;10.70;99.90;;;;;;5032001;28;19928;-88
2024/01/26 07:11:22;;;;;;;;;;;10.80;99.90;;;;;;5029110;28;19921;-87
2024/01/26 07:13:47;;;;;;;;;;;10.70;99.90;;;;;;4995971;28;20255;-87
2024/01/26 07:16:13;;;;;;;;;;;10.70;99.90;;;;;;5013717;28;19921;-87
2024/01/26 07:18:39;;;;;;;;;;;10.70;99.90;;;;;;5015913;28;19922;-87
2024/01/26 07:21:08;;;;;;;;;;;10.70;99.90;;;;;;4998236;28;19928;-87
2024/01/26 07:23:34;;;;;;;;;;;10.70;99.90;;;;;;5015529;28;19921;-87
2024/01/26 07:26:00;;;;;;;;;;;10.70;99.90;;;;;;4999296;28;19921;-86
2024/01/26 07:28:26;;;;;;;;;;;10.70;99.90;;;;;;5031826;28;20004;-86
2024/01/26 07:30:52;;;;;;;;;;;10.70;99.90;;;;;;5028432;28;19969;-86
2024/01/26 07:33:17;;;;;;;;;;;10.80;99.90;;;;;;5002449;28;19929;-86
2024/01/26 07:35:43;;;;;;;;;;;10.70;99.90;;;;;;5026113;28;19926;-87
2024/01/26 07:38:09;;;;;;;;;;;10.70;99.90;;;;;;5015571;28;19921;-86
2024/01/26 07:40:34;;;;;;;;;;;10.70;99.90;;;;;;4998829;28;19922;-87
2024/01/26 07:43:00;;;;;;;;;;;10.70;99.90;;;;;;5015204;28;20335;-86
2024/01/26 07:45:25;;;;;;;;;;;10.80;99.90;;;;;;5011554;28;19921;-87
2024/01/26 07:47:52;;;;;;;;;;;10.70;99.90;;;;;;5012154;28;19921;-86
2024/01/26 07:50:17;;;;;;;;;;;10.70;99.90;;;;;;5015518;28;19928;-87
2024/01/26 07:52:43;;;;;;;;;;;10.80;99.90;;;;;;5008896;28;19922;-86
2024/01/26 07:55:09;;;;;;;;;;;10.70;99.90;;;;;;5025341;28;20293;-86
2024/01/26 07:57:36;;;;;;;;;;;10.70;99.90;;;;;;4997201;28;19928;-87
2024/01/26 08:00:02;;;;;;;;;;;10.70;99.90;;;;;;5028590;28;19961;-86
2024/01/26 08:02:28;;;;;;;;;;;10.70;99.90;;;;;;4982276;28;19921;-86
2024/01/26 08:04:54;;;;;;;;;;;10.00;99.90;;;;;;5031657;28;19921;-86
2024/01/26 08:07:21;;;;;;;;;;;10.80;99.90;;;;;;5030907;28;19929;-87
2024/01/26 08:09:46;;;;;;;;;;;10.80;99.90;;;;;;5011671;28;19929;-87
2024/01/26 08:12:12;;;;;;;;;;;10.80;99.90;;;;;;4997327;28;20413;-86
2024/01/26 08:14:37;;;;;;;;;;;10.80;99.90;;;;;;4996672;28;20382;-86
2024/01/26 08:17:03;;;;;;;;;;;10.80;99.90;;;;;;5015030;28;19926;-86
2024/01/26 08:19:29;;;;;;;;;;;10.80;99.90;;;;;;5011718;28;20425;-90
2024/01/26 08:21:54;;;;;;;;;;;10.80;99.90;;;;;;4993291;28;19944;-86
2024/01/26 08:24:20;;;;;;;;;;;11.00;99.90;;;;;;5014324;28;19944;-87
2024/01/26 08:26:48;;;;;;;;;;;10.80;99.90;;;;;;5015229;28;19921;-87
2024/01/26 08:29:14;;;;;;;;;;;10.80;99.90;;;;;;5014974;28;19928;-89
2024/01/26 08:31:39;;;;;;;;;;;10.80;99.90;;;;;;5012643;28;19922;-87
2024/01/26 08:34:05;;;;;;;;;;;10.80;99.90;;;;;;4992688;28;19929;-87
2024/01/26 08:36:31;;;;;;;;;;;10.90;99.90;;;;;;5015937;28;20019;-87
2024/01/26 08:38:57;;;;;;;;;;;10.90;99.90;;;;;;5021408;28;19922;-86
2024/01/26 08:41:22;;;;;;;;;;;10.90;99.90;;;;;;4998795;28;20012;-86
2024/01/26 08:43:48;;;;;;;;;;;10.90;99.90;;;;;;4999398;28;19925;-85
2024/01/26 08:46:13;;;;;;;;;;;10.90;99.90;;;;;;4997602;28;19923;-85
2024/01/26 08:48:41;;;;;;;;;;;10.90;99.90;;;;;;4984882;28;19925;-89
2024/01/26 08:51:07;;;;;;;;;;;10.90;99.90;;;;;;5013805;28;19929;-86
2024/01/26 08:53:32;;;;;;;;;;;10.90;99.90;;;;;;5014590;28;20281;-84
2024/01/26 08:55:58;;;;;;;;;;;10.90;99.90;;;;;;4998586;28;19926;-86
2024/01/26 08:58:24;;;;;;;;;;;10.90;99.90;;;;;;5031372;28;20288;-86
2024/01/26 09:00:49;;;;;;;;;;;10.10;99.90;;;;;;5015144;28;19921;-88
2024/01/26 09:03:15;;;;;;;;;;;10.90;99.90;;;;;;5031398;28;20295;-87
2024/01/26 09:05:41;;;;;;;;;;;11.00;99.90;;;;;;5014331;28;19909;-87
2024/01/26 09:08:06;;;;;;;;;;;11.00;99.90;;;;;;5015410;28;19972;-87
2024/01/26 09:10:32;;;;;;;;;;;11.10;99.90;;;;;;5014711;28;19926;-85
2024/01/26 09:12:58;;;;;;;;;;;11.10;99.90;;;;;;5013669;28;19976;-86
2024/01/26 09:15:23;;;;;;;;;;;11.10;99.90;;;;;;5014619;28;19933;-84
2024/01/26 09:17:49;;;;;;;;;;;11.00;99.90;;;;;;5011316;28;20064;-85
2024/01/26 09:20:14;;;;;;;;;;;9.70;99.90;;;;;;5011361;28;20575;-84
2024/01/26 09:22:40;;;;;;;;;;;10.90;99.90;;;;;;5012834;28;19937;-87
2024/01/26 09:25:06;;;;;;;;;;;10.80;99.90;;;;;;4976312;28;19928;-89
2024/01/26 09:27:31;;;;;;;;;;;10.10;99.90;;;;;;4996452;28;20277;-89
2024/01/26 09:29:57;;;;;;;;;;;10.10;99.90;;;;;;5013184;28;20012;-90
2024/01/26 09:32:23;;;;;;;;;;;9.60;99.90;;;;;;5011159;28;19936;-89
2024/01/26 09:34:49;;;;;;;;;;;9.40;99.90;;;;;;4989937;28;19925;-89
2024/01/26 09:37:17;;;;;;;;;;;9.10;99.90;;;;;;5009378;28;19928;-88
2024/01/26 09:39:42;;;;;;;;;;;7.60;99.90;;;;;;5003043;28;19929;-88
2024/01/26 09:42:09;;;;;;;;;;;8.90;99.90;;;;;;5004676;28;19921;-88
2024/01/26 09:44:37;;;;;;;;;;;8.80;99.90;;;;;;4994737;28;20397;-88
2024/01/26 09:47:06;;;;;;;;;;;8.90;99.90;;;;;;5012600;28;19975;-87
2024/01/26 09:49:32;;;;;;;;;;;8.90;99.90;;;;;;4996665;28;19980;-89
2024/01/26 09:51:58;;;;;;;;;;;8.90;99.90;;;;;;5005613;28;19986;-87
2024/01/26 09:54:23;;;;;;;;;;;8.80;99.90;;;;;;5003072;28;19925;-88
2024/01/26 09:56:51;;;;;;;;;;;8.10;99.90;;;;;;5004877;28;20432;-89
2024/01/26 09:59:16;;;;;;;;;;;8.60;99.90;;;;;;5013718;28;19958;-88
2024/01/26 10:01:43;;;;;;;;;;;8.70;99.90;;;;;;4995799;28;19922;-88
2024/01/26 10:04:09;;;;;;;;;;;8.70;99.90;;;;;;4989313;28;20374;-88
2024/01/26 10:06:35;;;;;;;;;;;8.70;99.90;;;;;;4992918;28;19933;-89
2024/01/26 10:09:03;;;;;;;;;;;8.60;99.90;;;;;;5000627;28;19971;-88
2024/01/26 10:11:29;;;;;;;;;;;9.60;99.90;;;;;;5013275;28;20004;-88
2024/01/26 10:13:55;;;;;;;;;;;8.60;99.90;;;;;;4996620;28;20435;-88
2024/01/26 10:16:20;;;;;;;;;;;8.70;99.90;;;;;;5007872;28;20268;-88
2024/01/26 10:18:47;;;;;;;;;;;8.70;99.90;;;;;;5003397;28;20274;-88
2024/01/26 10:21:13;;;;;;;;;;;8.80;99.90;;;;;;5016106;28;19929;-88
2024/01/26 10:23:39;;;;;;;;;;;7.70;99.90;;;;;;5007749;28;19961;-87
2024/01/26 10:26:05;;;;;;;;;;;8.70;99.90;;;;;;4999501;28;19991;-87
2024/01/26 10:28:31;;;;;;;;;;;8.80;99.90;;;;;;5000225;28;20380;-89
2024/01/26 10:30:56;;;;;;;;;;;8.70;99.90;;;;;;5016213;28;19921;-88
2024/01/26 10:33:23;;;;;;;;;;;8.70;99.90;;;;;;4999966;28;19925;-87
2024/01/26 10:35:50;;;;;;;;;;;8.80;99.90;;;;;;5029405;28;20367;-87
2024/01/26 10:38:16;;;;;;;;;;;8.90;99.90;;;;;;5011065;28;20409;-88
2024/01/26 10:40:43;;;;;;;;;;;9.30;99.90;;;;;;5014605;28;20004;-87
2024/01/26 10:43:09;;;;;;;;;;;9.20;99.90;;;;;;4999915;28;19971;-87
2024/01/26 10:45:35;;;;;;;;;;;9.30;99.90;;;;;;5000267;28;20016;-88
2024/01/26 10:48:01;;;;;;;;;;;10.70;99.90;;;;;;5000576;28;19921;-88
2024/01/26 10:50:28;;;;;;;;;;;9.40;99.90;;;;;;5000078;28;20280;-88
2024/01/26 10:52:54;;;;;;;;;;;9.50;99.90;;;;;;5014929;28;19921;-88
2024/01/26 10:55:24;;;;;;;;;;;9.70;99.90;;;;;;5000205;28;19929;-88
2024/01/26 10:57:52;;;;;;;;;;;9.60;99.90;;;;;;5015713;28;19971;-87
2024/01/26 11:00:18;;;;;;;;;;;9.50;99.90;;;;;;5015090;28;19922;-88
2024/01/26 11:02:44;;;;;;;;;;;9.50;99.90;;;;;;4997672;28;19929;-88
2024/01/26 11:05:11;;;;;;;;;;;9.40;99.90;;;;;;5015651;28;19922;-90
2024/01/26 11:07:37;;;;;;;;;;;9.00;99.90;;;;;;5000618;28;19925;-87
2024/01/26 11:10:22;;;;;;;;;;;9.30;99.90;;;;;;4994110;28;19968;-89
2024/01/26 11:12:58;;;;;;;;;;;9.20;99.90;;;;;;5014696;28;20381;-87
2024/01/26 11:15:45;;;;;;;;;;;9.20;99.90;;;;;;4995796;28;19926;-88
2024/01/26 11:18:26;;;;;;;;;;;9.20;99.90;;;;;;4996338;28;19925;-87
2024/01/26 11:20:52;;;;;;;;;;;9.10;99.90;;;;;;4994804;28;19967;-88
2024/01/26 11:23:17;;;;;;;;;;;9.20;99.90;;;;;;5015058;28;19921;-88
2024/01/26 11:25:44;;;;;;;;;;;9.20;99.90;;;;;;5013814;28;19925;-88
2024/01/26 11:28:10;;;;;;;;;;;9.20;99.90;;;;;;5014388;28;19929;-89
2024/01/26 11:30:37;;;;;;;;;;;9.50;99.90;;;;;;5015502;28;19925;-88
2024/01/26 11:33:03;;;;;;;;;;;9.10;99.90;;;;;;4991252;28;19932;-87
2024/01/26 11:35:28;;;;;;;;;;;9.10;99.90;;;;;;4992335;28;19929;-88
2024/01/26 11:37:58;;;;;;;;;;;9.10;99.90;;;;;;5014085;28;20406;-87
2024/01/26 11:40:23;;;;;;;;;;;8.90;99.90;;;;;;4996785;28;19936;-88
2024/01/26 11:42:50;;;;;;;;;;;8.80;99.90;;;;;;4995039;28;19925;-88
2024/01/26 11:45:34;;;;;;;;;;;9.30;99.90;;;;;;5013999;28;20007;-87
2024/01/26 11:48:00;;;;;;;;;;;8.80;99.90;;;;;;5015679;28;19987;-89
2024/01/26 11:50:26;;;;;;;;;;;8.80;99.90;;;;;;5014514;28;20378;-89
2024/01/26 11:52:51;;;;;;;;;;;8.80;99.90;;;;;;5015888;28;19930;-89
2024/01/26 11:55:17;;;;;;;;;;;8.70;99.90;;;;;;5019832;28;19933;-90
2024/01/26 11:57:42;;;;;;;;;;;8.60;99.90;;;;;;5014171;28;19931;-89
2024/01/26 12:00:12;;;;;;;;;;;8.70;99.90;;;;;;5017134;28;20009;-89
2024/01/26 12:02:38;;;;;;;;;;;8.60;99.90;;;;;;4997682;28;19925;-88
2024/01/26 12:05:04;;;;;;;;;;;8.60;99.90;;;;;;5009870;28;20008;-88
2024/01/26 12:07:29;;;;;;;;;;;8.50;99.90;;;;;;4995576;28;19925;-86
2024/01/26 12:09:55;;;;;;;;;;;8.50;99.90;;;;;;5013229;28;19960;-86
2024/01/26 12:12:21;;;;;;;;;;;8.50;99.90;;;;;;5013205;28;20005;-87
2024/01/26 12:14:47;;;;;;;;;;;8.50;99.90;;;;;;4996977;28;20341;-86
2024/01/26 12:17:12;;;;;;;;;;;8.50;99.90;;;;;;4980139;28;19973;-86
2024/01/26 12:19:38;;;;;;;;;;;8.50;99.90;;;;;;5013299;28;19928;-87
2024/01/26 12:22:07;;;;;;;;;;;8.70;99.90;;;;;;5014453;28;20012;-86
2024/01/26 12:24:33;;;;;;;;;;;8.10;99.90;;;;;;4997273;28;19933;-86
2024/01/26 12:27:00;;;;;;;;;;;8.30;99.90;;;;;;4996126;28;20267;-87
2024/01/26 12:29:25;;;;;;;;;;;8.30;99.90;;;;;;4999656;28;20385;-90
2024/01/26 12:31:56;;;;;;;;;;;8.80;99.90;;;;;;5017759;28;19925;-89
2024/01/26 12:34:26;;;;;;;;;;;8.30;99.90;;;;;;5023936;28;19932;-90
2024/01/26 12:36:59;;;;;;;;;;;9.30;99.90;;;;;;5012055;28;20020;-90
2024/01/26 12:39:25;;;;;;;;;;;8.30;99.90;;;;;;4996816;28;19922;-90
2024/01/26 12:41:53;;;;;;;;;;;8.30;99.90;;;;;;5000500;28;19972;-90
2024/01/26 12:44:19;;;;;;;;;;;8.30;99.90;;;;;;5016276;28;20285;-91
2024/01/26 12:46:45;;;;;;;;;;;8.30;99.90;;;;;;5000394;28;19929;-89
2024/01/26 12:49:14;;;;;;;;;;;8.60;99.90;;;;;;5014385;28;19922;-90
2024/01/26 12:51:42;;;;;;;;;;;8.20;99.90;;;;;;4999071;28;19944;-90
2024/01/26 12:54:10;;;;;;;;;;;8.30;99.90;;;;;;5015219;28;20357;-92
2024/01/26 12:56:36;;;;;;;;;;;8.20;99.90;;;;;;5026725;28;19916;-89
2024/01/26 12:59:02;;;;;;;;;;;8.30;99.90;;;;;;5010303;28;19991;-89
2024/01/26 13:01:29;;;;;;;;;;;9.00;99.90;;;;;;4998963;28;19921;-88
2024/01/26 13:03:54;;;;;;;;;;;8.20;99.90;;;;;;4998019;28;19971;-85
2024/01/26 13:06:20;;;;;;;;;;;8.10;99.90;;;;;;4997336;28;19961;-88
2024/01/26 13:08:46;;;;;;;;;;;8.40;99.90;;;;;;5032611;28;19921;-87
2024/01/26 13:11:11;;;;;;;;;;;9.40;99.90;;;;;;5010290;28;19928;-86
2024/01/26 13:13:40;;;;;;;;;;;7.80;99.90;;;;;;4999315;28;19944;-86
2024/01/26 13:16:05;;;;;;;;;;;7.70;99.90;;;;;;5010822;28;19925;-86
2024/01/26 13:18:33;;;;;;;;;;;7.70;99.90;;;;;;4991638;28;19922;-87
2024/01/26 13:21:02;;;;;;;;;;;6.60;99.90;;;;;;4998153;28;19925;-87
2024/01/26 13:23:27;;;;;;;;;;;7.50;99.90;;;;;;4993788;28;20532;-87
2024/01/26 13:25:54;;;;;;;;;;;7.50;99.90;;;;;;4991800;28;19921;-86
2024/01/26 13:28:21;;;;;;;;;;;7.60;99.90;;;;;;5012337;28;19921;-87
2024/01/26 13:30:47;;;;;;;;;;;7.70;99.90;;;;;;5013867;28;19933;-87
2024/01/26 13:33:12;;;;;;;;;;;7.60;99.90;;;;;;5008495;28;19928;-86
2024/01/26 13:35:38;;;;;;;;;;;8.00;99.90;;;;;;4992321;28;20016;-85
2024/01/26 13:38:04;;;;;;;;;;;8.30;99.90;;;;;;5009990;28;19936;-87
2024/01/26 13:40:30;;;;;;;;;;;8.00;99.90;;;;;;5016659;28;20400;-86
2024/01/26 13:42:56;;;;;;;;;;;8.00;99.90;;;;;;5001040;28;19926;-87
2024/01/26 13:45:21;;;;;;;;;;;8.00;99.90;;;;;;5003710;28;19965;-93
2024/01/26 13:47:50;;;;;;;;;;;8.10;99.90;;;;;;5020928;28;19921;-92
2024/01/26 13:50:16;;;;;;;;;;;8.00;99.90;;;;;;5011368;28;19933;-87
2024/01/26 13:52:43;;;;;;;;;;;8.00;99.90;;;;;;5013071;28;19921;-87
2024/01/26 13:55:08;;;;;;;;;;;8.20;99.90;;;;;;5016310;28;19932;-85
2024/01/26 13:57:34;;;;;;;;;;;8.20;99.90;;;;;;5017468;28;19922;-86
2024/01/26 14:00:00;;;;;;;;;;;8.20;99.90;;;;;;4999959;28;19921;-85
2024/01/26 14:02:26;;;;;;;;;;;8.10;99.90;;;;;;5016053;28;19928;-85
2024/01/26 14:04:51;;;;;;;;;;;8.30;99.90;;;;;;5018006;28;19922;-86
2024/01/26 14:07:20;;;;;;;;;;;8.10;99.90;;;;;;5016508;28;20617;-85
2024/01/26 14:09:45;;;;;;;;;;;8.30;99.90;;;;;;5004369;28;19922;-85
2024/01/26 14:12:11;;;;;;;;;;;8.20;99.90;;;;;;5000135;28;19922;-86
2024/01/26 14:14:37;;;;;;;;;;;8.30;99.90;;;;;;4996682;28;20016;-85
2024/01/26 14:17:02;;;;;;;;;;;8.30;99.90;;;;;;5012886;28;19925;-86